sensor_id;sensor_type;location;lat;lon;timestamp;pressure;altitude;pressure_sealevel;temperature;humidity
72585;BME280;60618;40.084;32.908;2023-05-08T00:01:57;89507.72;;;10.74;68.54
72585;BME280;60618;40.084;32.908;2023-05-08T00:04:24;89501.44;;;10.72;69.19
72585;BME280;60618;40.084;32.908;2023-05-08T00:06:51;89497.56;;;10.73;68.82
72585;BME280;60618;40.084;32.908;2023-05-08T00:09:19;89494.63;;;10.71;68.84
72585;BME280;60618;40.084;32.908;2023-05-08T00:11:46;89492.16;;;10.67;69.17
72585;BME280;60618;40.084;32.908;2023-05-08T00:14:14;89490.25;;;10.68;69.47
72585;BME280;60618;40.084;32.908;2023-05-08T00:16:40;89491.59;;;10.84;68.90
72585;BME280;60618;40.084;32.908;2023-05-08T00:19:07;89495.88;;;10.75;68.54
72585;BME280;60618;40.084;32.908;2023-05-08T00:21:34;89494.94;;;10.78;68.60
72585;BME280;60618;40.084;32.908;2023-05-08T00:24:01;89494.19;;;10.78;68.59
72585;BME280;60618;40.084;32.908;2023-05-08T00:26:28;89497.13;;;10.80;68.34
72585;BME280;60618;40.084;32.908;2023-05-08T00:28:55;89499.06;;;10.79;68.82
72585;BME280;60618;40.084;32.908;2023-05-08T00:31:22;89506.13;;;10.83;68.27
72585;BME280;60618;40.084;32.908;2023-05-08T00:33:49;89495.16;;;10.75;68.69
72585;BME280;60618;40.084;32.908;2023-05-08T00:36:16;89493.53;;;10.83;68.65
72585;BME280;60618;40.084;32.908;2023-05-08T00:38:43;89497.13;;;10.80;67.86
72585;BME280;60618;40.084;32.908;2023-05-08T00:41:09;89498.84;;;10.83;67.87
72585;BME280;60618;40.084;32.908;2023-05-08T00:43:36;89497.00;;;10.95;67.67
72585;BME280;60618;40.084;32.908;2023-05-08T00:46:04;89502.81;;;10.93;67.61
72585;BME280;60618;40.084;32.908;2023-05-08T00:48:32;89497.66;;;10.84;67.80
72585;BME280;60618;40.084;32.908;2023-05-08T00:51:01;89493.56;;;10.89;67.36
72585;BME280;60618;40.084;32.908;2023-05-08T00:53:32;89502.53;;;10.91;67.77
72585;BME280;60618;40.084;32.908;2023-05-08T00:56:01;89499.81;;;10.86;67.82
72585;BME280;60618;40.084;32.908;2023-05-08T00:58:29;89498.69;;;10.92;67.54
72585;BME280;60618;40.084;32.908;2023-05-08T01:00:58;89499.09;;;10.85;67.74
72585;BME280;60618;40.084;32.908;2023-05-08T01:03:27;89499.81;;;10.80;68.25
72585;BME280;60618;40.084;32.908;2023-05-08T01:05:54;89507.34;;;10.87;67.70
72585;BME280;60618;40.084;32.908;2023-05-08T01:08:21;89500.31;;;10.84;67.44
72585;BME280;60618;40.084;32.908;2023-05-08T01:16:08;89500.47;;;10.75;67.49
72585;BME280;60618;40.084;32.908;2023-05-08T01:18:44;89506.06;;;10.77;67.29
72585;BME280;60618;40.084;32.908;2023-05-08T01:29:33;89512.50;;;10.65;67.53
72585;BME280;60618;40.084;32.908;2023-05-08T01:37:16;89511.03;;;10.64;67.56
72585;BME280;60618;40.084;32.908;2023-05-08T01:40:11;89500.81;;;10.57;67.20
72585;BME280;60618;40.084;32.908;2023-05-08T01:45:29;89502.41;;;10.48;67.65
72585;BME280;60618;40.084;32.908;2023-05-08T01:48:09;89491.28;;;10.50;67.51
72585;BME280;60618;40.084;32.908;2023-05-08T01:50:43;89486.13;;;10.41;68.04
72585;BME280;60618;40.084;32.908;2023-05-08T01:53:25;89492.16;;;10.36;67.36
72585;BME280;60618;40.084;32.908;2023-05-08T01:55:57;89487.34;;;10.19;68.63
72585;BME280;60618;40.084;32.908;2023-05-08T01:58:26;89489.09;;;10.22;68.60
72585;BME280;60618;40.084;32.908;2023-05-08T02:00:55;89490.22;;;10.16;68.44
72585;BME280;60618;40.084;32.908;2023-05-08T02:03:23;89492.94;;;10.21;68.71
72585;BME280;60618;40.084;32.908;2023-05-08T02:05:54;89490.38;;;10.27;68.56
72585;BME280;60618;40.084;32.908;2023-05-08T02:08:23;89487.97;;;10.29;68.11
72585;BME280;60618;40.084;32.908;2023-05-08T02:10:52;89492.19;;;10.21;69.02
72585;BME280;60618;40.084;32.908;2023-05-08T02:13:20;89498.47;;;10.18;69.34
72585;BME280;60618;40.084;32.908;2023-05-08T02:15:49;89481.66;;;10.27;68.76
72585;BME280;60618;40.084;32.908;2023-05-08T02:18:19;89494.06;;;10.35;68.89
72585;BME280;60618;40.084;32.908;2023-05-08T02:20:49;89489.97;;;10.34;68.95
72585;BME280;60618;40.084;32.908;2023-05-08T02:23:17;89495.53;;;10.36;69.08
72585;BME280;60618;40.084;32.908;2023-05-08T02:25:46;89489.25;;;10.39;68.41
72585;BME280;60618;40.084;32.908;2023-05-08T02:28:14;89501.22;;;10.49;68.96
72585;BME280;60618;40.084;32.908;2023-05-08T02:30:42;89503.13;;;10.43;69.52
72585;BME280;60618;40.084;32.908;2023-05-08T02:33:11;89502.06;;;10.35;69.13
72585;BME280;60618;40.084;32.908;2023-05-08T02:35:41;89496.00;;;10.35;69.68
72585;BME280;60618;40.084;32.908;2023-05-08T02:38:11;89508.38;;;10.38;69.31
72585;BME280;60618;40.084;32.908;2023-05-08T02:40:47;89502.56;;;10.39;69.16
72585;BME280;60618;40.084;32.908;2023-05-08T02:43:15;89499.66;;;10.37;69.21
72585;BME280;60618;40.084;32.908;2023-05-08T02:45:55;89511.03;;;10.38;68.99
72585;BME280;60618;40.084;32.908;2023-05-08T02:51:53;89518.81;;;10.41;68.78
72585;BME280;60618;40.084;32.908;2023-05-08T02:57:25;89517.25;;;10.29;69.18
72585;BME280;60618;40.084;32.908;2023-05-08T02:59:59;89518.19;;;10.26;69.48
72585;BME280;60618;40.084;32.908;2023-05-08T03:02:36;89518.28;;;10.37;69.58
72585;BME280;60618;40.084;32.908;2023-05-08T03:05:16;89526.59;;;10.45;69.08
72585;BME280;60618;40.084;32.908;2023-05-08T03:07:47;89528.28;;;10.42;68.76
72585;BME280;60618;40.084;32.908;2023-05-08T03:10:17;89532.13;;;10.41;69.08
72585;BME280;60618;40.084;32.908;2023-05-08T03:12:47;89535.78;;;10.44;68.56
72585;BME280;60618;40.084;32.908;2023-05-08T03:15:20;89527.44;;;10.57;68.48
72585;BME280;60618;40.084;32.908;2023-05-08T03:17:53;89531.81;;;10.60;68.33
72585;BME280;60618;40.084;32.908;2023-05-08T03:20:21;89545.41;;;10.62;68.53
72585;BME280;60618;40.084;32.908;2023-05-08T03:22:50;89550.81;;;10.47;68.57
72585;BME280;60618;40.084;32.908;2023-05-08T03:25:19;89546.84;;;10.37;69.51
72585;BME280;60618;40.084;32.908;2023-05-08T03:27:48;89548.81;;;10.42;68.89
72585;BME280;60618;40.084;32.908;2023-05-08T03:30:16;89542.97;;;10.38;68.72
72585;BME280;60618;40.084;32.908;2023-05-08T03:32:45;89542.25;;;10.37;70.10
72585;BME280;60618;40.084;32.908;2023-05-08T03:35:13;89560.75;;;10.46;69.54
72585;BME280;60618;40.084;32.908;2023-05-08T03:37:40;89547.16;;;10.44;69.10
72585;BME280;60618;40.084;32.908;2023-05-08T03:40:08;89548.66;;;10.51;68.90
72585;BME280;60618;40.084;32.908;2023-05-08T03:42:36;89550.19;;;10.58;69.07
72585;BME280;60618;40.084;32.908;2023-05-08T03:45:05;89556.47;;;10.55;69.12
72585;BME280;60618;40.084;32.908;2023-05-08T03:47:34;89562.19;;;10.47;69.22
72585;BME280;60618;40.084;32.908;2023-05-08T03:50:01;89555.63;;;10.43;69.98
72585;BME280;60618;40.084;32.908;2023-05-08T03:52:31;89552.50;;;10.44;69.66
72585;BME280;60618;40.084;32.908;2023-05-08T03:54:58;89559.28;;;10.45;70.00
72585;BME280;60618;40.084;32.908;2023-05-08T03:57:27;89556.47;;;10.55;69.53
72585;BME280;60618;40.084;32.908;2023-05-08T04:00:02;89561.56;;;10.58;69.87
72585;BME280;60618;40.084;32.908;2023-05-08T04:07:52;89578.38;;;11.22;68.04
72585;BME280;60618;40.084;32.908;2023-05-08T04:10:28;89573.34;;;11.29;68.00
72585;BME280;60618;40.084;32.908;2023-05-08T04:13:03;89570.50;;;11.38;67.09
72585;BME280;60618;40.084;32.908;2023-05-08T04:15:34;89570.56;;;11.50;67.45
72585;BME280;60618;40.084;32.908;2023-05-08T04:18:08;89570.50;;;11.76;67.41
72585;BME280;60618;40.084;32.908;2023-05-08T04:20:39;89584.09;;;12.15;66.70
72585;BME280;60618;40.084;32.908;2023-05-08T04:23:08;89583.75;;;12.56;65.53
72585;BME280;60618;40.084;32.908;2023-05-08T04:25:36;89567.81;;;12.89;63.47
72585;BME280;60618;40.084;32.908;2023-05-08T04:28:03;89580.53;;;13.22;62.56
72585;BME280;60618;40.084;32.908;2023-05-08T04:30:31;89572.00;;;13.24;61.75
72585;BME280;60618;40.084;32.908;2023-05-08T04:32:59;89581.00;;;13.54;62.39
72585;BME280;60618;40.084;32.908;2023-05-08T04:35:29;89574.66;;;13.80;60.26
72585;BME280;60618;40.084;32.908;2023-05-08T04:37:57;89571.94;;;14.08;59.62
72585;BME280;60618;40.084;32.908;2023-05-08T04:40:24;89579.63;;;14.51;58.28
72585;BME280;60618;40.084;32.908;2023-05-08T04:42:51;89584.47;;;14.58;55.90
72585;BME280;60618;40.084;32.908;2023-05-08T04:45:18;89574.50;;;14.36;56.44
72585;BME280;60618;40.084;32.908;2023-05-08T04:47:45;89579.34;;;14.60;57.30
72585;BME280;60618;40.084;32.908;2023-05-08T04:50:12;89578.75;;;14.84;56.15
72585;BME280;60618;40.084;32.908;2023-05-08T04:52:39;89584.50;;;14.99;56.43
72585;BME280;60618;40.084;32.908;2023-05-08T04:55:06;89586.94;;;14.97;54.86
72585;BME280;60618;40.084;32.908;2023-05-08T04:57:34;89579.28;;;14.71;55.44
72585;BME280;60618;40.084;32.908;2023-05-08T05:00:00;89585.78;;;14.23;57.30
72585;BME280;60618;40.084;32.908;2023-05-08T05:02:27;89579.31;;;13.57;60.05
72585;BME280;60618;40.084;32.908;2023-05-08T05:04:54;89585.63;;;13.26;62.42
72585;BME280;60618;40.084;32.908;2023-05-08T05:07:21;89579.44;;;12.69;63.47
72585;BME280;60618;40.084;32.908;2023-05-08T05:09:48;89589.81;;;12.50;64.60
72585;BME280;60618;40.084;32.908;2023-05-08T05:12:15;89584.47;;;12.56;64.42
72585;BME280;60618;40.084;32.908;2023-05-08T05:14:42;89580.47;;;13.00;63.31
72585;BME280;60618;40.084;32.908;2023-05-08T05:17:11;89584.91;;;13.42;62.18
72585;BME280;60618;40.084;32.908;2023-05-08T05:19:38;89590.50;;;13.61;62.06
72585;BME280;60618;40.084;32.908;2023-05-08T05:22:05;89595.13;;;13.66;61.61
72585;BME280;60618;40.084;32.908;2023-05-08T05:24:32;89590.69;;;13.18;63.20
72585;BME280;60618;40.084;32.908;2023-05-08T05:26:59;89589.47;;;13.08;62.43
72585;BME280;60618;40.084;32.908;2023-05-08T05:29:26;89590.47;;;13.27;62.25
72585;BME280;60618;40.084;32.908;2023-05-08T05:31:53;89596.31;;;13.20;62.63
72585;BME280;60618;40.084;32.908;2023-05-08T05:34:20;89600.94;;;13.25;62.48
72585;BME280;60618;40.084;32.908;2023-05-08T05:36:47;89592.94;;;13.42;62.71
72585;BME280;60618;40.084;32.908;2023-05-08T05:39:14;89593.84;;;13.11;62.14
72585;BME280;60618;40.084;32.908;2023-05-08T05:41:41;89596.44;;;12.72;63.68
72585;BME280;60618;40.084;32.908;2023-05-08T05:44:07;89600.25;;;12.48;64.55
72585;BME280;60618;40.084;32.908;2023-05-08T05:46:34;89601.78;;;12.72;64.90
72585;BME280;60618;40.084;32.908;2023-05-08T05:49:01;89597.69;;;12.88;63.32
72585;BME280;60618;40.084;32.908;2023-05-08T05:51:28;89607.41;;;12.91;63.10
72585;BME280;60618;40.084;32.908;2023-05-08T05:53:55;89598.75;;;13.24;63.37
72585;BME280;60618;40.084;32.908;2023-05-08T05:56:22;89605.81;;;13.77;63.20
72585;BME280;60618;40.084;32.908;2023-05-08T05:58:49;89603.59;;;14.04;59.94
72585;BME280;60618;40.084;32.908;2023-05-08T06:01:19;89601.84;;;14.23;59.69
72585;BME280;60618;40.084;32.908;2023-05-08T06:03:46;89609.19;;;14.06;59.79
72585;BME280;60618;40.084;32.908;2023-05-08T06:06:13;89607.63;;;14.44;58.85
72585;BME280;60618;40.084;32.908;2023-05-08T06:08:40;89614.78;;;14.88;57.03
72585;BME280;60618;40.084;32.908;2023-05-08T06:11:06;89612.16;;;14.77;56.72
72585;BME280;60618;40.084;32.908;2023-05-08T06:13:33;89603.34;;;14.82;56.81
72585;BME280;60618;40.084;32.908;2023-05-08T06:16:00;89608.97;;;14.84;57.49
72585;BME280;60618;40.084;32.908;2023-05-08T06:18:27;89608.03;;;14.76;58.00
72585;BME280;60618;40.084;32.908;2023-05-08T06:20:57;89604.28;;;14.90;57.17
72585;BME280;60618;40.084;32.908;2023-05-08T06:23:24;89617.97;;;14.81;56.14
72585;BME280;60618;40.084;32.908;2023-05-08T06:25:52;89619.41;;;14.93;57.09
72585;BME280;60618;40.084;32.908;2023-05-08T06:28:19;89617.81;;;15.15;57.07
72585;BME280;60618;40.084;32.908;2023-05-08T06:30:46;89620.34;;;15.01;57.30
72585;BME280;60618;40.084;32.908;2023-05-08T06:33:13;89621.72;;;15.14;57.72
72585;BME280;60618;40.084;32.908;2023-05-08T06:35:41;89625.06;;;15.31;56.44
72585;BME280;60618;40.084;32.908;2023-05-08T06:38:11;89618.63;;;15.04;56.26
72585;BME280;60618;40.084;32.908;2023-05-08T06:40:44;89630.28;;;15.12;56.69
72585;BME280;60618;40.084;32.908;2023-05-08T06:43:12;89622.38;;;14.79;57.58
72585;BME280;60618;40.084;32.908;2023-05-08T06:45:39;89628.53;;;14.62;58.12
72585;BME280;60618;40.084;32.908;2023-05-08T06:48:06;89621.50;;;14.42;58.49
72585;BME280;60618;40.084;32.908;2023-05-08T06:50:36;89626.53;;;14.80;58.98
72585;BME280;60618;40.084;32.908;2023-05-08T06:53:03;89622.97;;;15.07;57.70
72585;BME280;60618;40.084;32.908;2023-05-08T06:55:30;89626.72;;;15.40;57.62
72585;BME280;60618;40.084;32.908;2023-05-08T06:57:57;89624.59;;;15.68;55.48
72585;BME280;60618;40.084;32.908;2023-05-08T07:00:24;89627.84;;;15.91;55.21
72585;BME280;60618;40.084;32.908;2023-05-08T07:02:51;89625.84;;;15.61;54.98
72585;BME280;60618;40.084;32.908;2023-05-08T07:05:18;89623.84;;;15.68;55.19
72585;BME280;60618;40.084;32.908;2023-05-08T07:07:46;89617.22;;;15.33;55.63
72585;BME280;60618;40.084;32.908;2023-05-08T07:10:13;89632.25;;;15.06;57.25
72585;BME280;60618;40.084;32.908;2023-05-08T07:12:39;89631.44;;;14.70;57.95
72585;BME280;60618;40.084;32.908;2023-05-08T07:15:07;89623.53;;;15.41;58.17
72585;BME280;60618;40.084;32.908;2023-05-08T07:17:51;89633.44;;;15.93;54.94
72585;BME280;60618;40.084;32.908;2023-05-08T07:20:18;89622.38;;;16.27;55.26
72585;BME280;60618;40.084;32.908;2023-05-08T07:22:45;89622.59;;;16.53;53.43
72585;BME280;60618;40.084;32.908;2023-05-08T07:25:12;89621.59;;;16.32;52.05
72585;BME280;60618;40.084;32.908;2023-05-08T07:27:39;89635.38;;;15.93;53.40
72585;BME280;60618;40.084;32.908;2023-05-08T07:30:07;89625.75;;;15.37;55.18
72585;BME280;60618;40.084;32.908;2023-05-08T07:32:34;89620.28;;;15.13;55.52
72585;BME280;60618;40.084;32.908;2023-05-08T07:35:02;89624.47;;;15.02;55.69
72585;BME280;60618;40.084;32.908;2023-05-08T07:37:28;89627.00;;;14.84;57.32
72585;BME280;60618;40.084;32.908;2023-05-08T07:39:55;89632.97;;;15.07;56.52
72585;BME280;60618;40.084;32.908;2023-05-08T07:42:22;89624.56;;;15.27;55.78
72585;BME280;60618;40.084;32.908;2023-05-08T07:44:49;89632.13;;;15.70;55.28
72585;BME280;60618;40.084;32.908;2023-05-08T07:47:21;89631.06;;;15.43;55.40
72585;BME280;60618;40.084;32.908;2023-05-08T07:49:48;89617.06;;;15.20;56.25
72585;BME280;60618;40.084;32.908;2023-05-08T07:52:15;89626.56;;;15.21;55.89
72585;BME280;60618;40.084;32.908;2023-05-08T07:54:42;89618.66;;;15.75;55.19
72585;BME280;60618;40.084;32.908;2023-05-08T07:57:10;89621.28;;;15.81;53.59
72585;BME280;60618;40.084;32.908;2023-05-08T07:59:37;89631.16;;;15.73;54.08
72585;BME280;60618;40.084;32.908;2023-05-08T08:02:04;89623.81;;;15.73;54.86
72585;BME280;60618;40.084;32.908;2023-05-08T08:04:32;89621.78;;;15.85;55.35
72585;BME280;60618;40.084;32.908;2023-05-08T08:06:59;89625.78;;;16.03;54.47
72585;BME280;60618;40.084;32.908;2023-05-08T08:09:28;89631.84;;;16.33;54.20
72585;BME280;60618;40.084;32.908;2023-05-08T08:11:55;89625.34;;;16.48;53.11
72585;BME280;60618;40.084;32.908;2023-05-08T08:14:22;89638.03;;;16.23;53.36
72585;BME280;60618;40.084;32.908;2023-05-08T08:16:49;89633.59;;;16.01;53.46
72585;BME280;60618;40.084;32.908;2023-05-08T08:19:16;89639.53;;;15.64;55.04
72585;BME280;60618;40.084;32.908;2023-05-08T08:21:43;89641.63;;;15.71;54.33
72585;BME280;60618;40.084;32.908;2023-05-08T08:24:10;89648.44;;;15.77;54.56
72585;BME280;60618;40.084;32.908;2023-05-08T08:26:36;89633.97;;;15.86;54.60
72585;BME280;60618;40.084;32.908;2023-05-08T08:29:03;89642.16;;;16.29;55.12
72585;BME280;60618;40.084;32.908;2023-05-08T08:31:30;89627.97;;;16.53;53.54
72585;BME280;60618;40.084;32.908;2023-05-08T08:33:57;89632.47;;;16.45;54.91
72585;BME280;60618;40.084;32.908;2023-05-08T08:36:24;89627.41;;;16.11;53.66
72585;BME280;60618;40.084;32.908;2023-05-08T08:38:51;89635.28;;;16.04;54.22
72585;BME280;60618;40.084;32.908;2023-05-08T08:41:18;89634.69;;;15.86;54.75
72585;BME280;60618;40.084;32.908;2023-05-08T08:43:45;89630.25;;;15.53;55.02
72585;BME280;60618;40.084;32.908;2023-05-08T08:46:13;89638.31;;;15.53;55.89
72585;BME280;60618;40.084;32.908;2023-05-08T08:48:45;89624.78;;;15.76;54.02
72585;BME280;60618;40.084;32.908;2023-05-08T08:51:31;89622.25;;;16.13;52.00
72585;BME280;60618;40.084;32.908;2023-05-08T08:54:12;89625.88;;;16.16;51.38
72585;BME280;60618;40.084;32.908;2023-05-08T08:56:40;89621.88;;;15.74;52.04
72585;BME280;60618;40.084;32.908;2023-05-08T08:59:08;89618.94;;;15.72;51.62
72585;BME280;60618;40.084;32.908;2023-05-08T09:01:40;89629.94;;;15.68;51.77
72585;BME280;60618;40.084;32.908;2023-05-08T09:04:10;89627.94;;;15.39;51.88
72585;BME280;60618;40.084;32.908;2023-05-08T09:06:38;89622.59;;;15.33;51.67
72585;BME280;60618;40.084;32.908;2023-05-08T09:09:05;89617.44;;;15.35;51.34
72585;BME280;60618;40.084;32.908;2023-05-08T09:11:32;89616.53;;;15.27;53.30
72585;BME280;60618;40.084;32.908;2023-05-08T09:13:59;89620.47;;;15.20;54.57
72585;BME280;60618;40.084;32.908;2023-05-08T09:16:26;89609.41;;;15.35;53.33
72585;BME280;60618;40.084;32.908;2023-05-08T09:18:54;89610.59;;;15.40;53.27
72585;BME280;60618;40.084;32.908;2023-05-08T09:21:21;89614.75;;;15.35;53.58
72585;BME280;60618;40.084;32.908;2023-05-08T09:24:02;89603.66;;;15.55;53.23
72585;BME280;60618;40.084;32.908;2023-05-08T09:26:38;89601.97;;;15.52;52.85
72585;BME280;60618;40.084;32.908;2023-05-08T09:29:19;89606.22;;;15.37;53.44
72585;BME280;60618;40.084;32.908;2023-05-08T09:31:50;89607.78;;;15.21;53.71
72585;BME280;60618;40.084;32.908;2023-05-08T09:34:23;89605.16;;;15.10;54.68
72585;BME280;60618;40.084;32.908;2023-05-08T09:36:50;89592.19;;;15.19;52.19
72585;BME280;60618;40.084;32.908;2023-05-08T09:39:24;89612.66;;;15.22;52.38
72585;BME280;60618;40.084;32.908;2023-05-08T09:42:02;89612.09;;;15.35;52.15
72585;BME280;60618;40.084;32.908;2023-05-08T09:44:49;89609.34;;;15.46;53.60
72585;BME280;60618;40.084;32.908;2023-05-08T09:47:21;89603.31;;;15.34;52.07
72585;BME280;60618;40.084;32.908;2023-05-08T09:50:05;89598.59;;;15.46;52.38
72585;BME280;60618;40.084;32.908;2023-05-08T09:52:33;89593.63;;;15.61;51.70
72585;BME280;60618;40.084;32.908;2023-05-08T09:57:36;89591.34;;;16.26;51.77
72585;BME280;60618;40.084;32.908;2023-05-08T10:00:09;89591.72;;;16.60;51.42
72585;BME280;60618;40.084;32.908;2023-05-08T10:02:39;89582.97;;;16.97;51.32
72585;BME280;60618;40.084;32.908;2023-05-08T10:05:33;89592.13;;;17.45;49.20
72585;BME280;60618;40.084;32.908;2023-05-08T10:08:20;89578.53;;;17.69;49.06
72585;BME280;60618;40.084;32.908;2023-05-08T10:10:47;89578.03;;;18.03;47.98
72585;BME280;60618;40.084;32.908;2023-05-08T10:13:14;89579.84;;;18.40;46.70
72585;BME280;60618;40.084;32.908;2023-05-08T10:15:42;89573.13;;;18.73;44.93
72585;BME280;60618;40.084;32.908;2023-05-08T10:18:10;89580.88;;;19.37;46.21
72585;BME280;60618;40.084;32.908;2023-05-08T10:20:41;89581.56;;;20.06;44.34
72585;BME280;60618;40.084;32.908;2023-05-08T10:23:13;89575.66;;;19.52;40.03
72585;BME280;60618;40.084;32.908;2023-05-08T10:25:47;89567.28;;;18.82;40.73
72585;BME280;60618;40.084;32.908;2023-05-08T10:28:56;89567.78;;;18.14;44.17
72585;BME280;60618;40.084;32.908;2023-05-08T10:31:28;89558.97;;;18.01;44.25
72585;BME280;60618;40.084;32.908;2023-05-08T10:34:00;89564.16;;;18.38;43.87
72585;BME280;60618;40.084;32.908;2023-05-08T10:36:28;89569.75;;;18.01;44.01
72585;BME280;60618;40.084;32.908;2023-05-08T10:38:58;89574.00;;;18.23;43.34
72585;BME280;60618;40.084;32.908;2023-05-08T10:41:25;89565.72;;;18.21;42.08
72585;BME280;60618;40.084;32.908;2023-05-08T10:43:53;89559.69;;;18.01;40.96
72585;BME280;60618;40.084;32.908;2023-05-08T10:49:03;89560.66;;;18.83;41.94
72585;BME280;60618;40.084;32.908;2023-05-08T10:51:55;89555.25;;;18.96;41.09
72585;BME280;60618;40.084;32.908;2023-05-08T10:57:19;89552.13;;;18.92;41.71
72585;BME280;60618;40.084;32.908;2023-05-08T10:59:46;89542.88;;;17.82;42.93
72585;BME280;60618;40.084;32.908;2023-05-08T11:02:13;89549.59;;;17.56;44.79
72585;BME280;60618;40.084;32.908;2023-05-08T11:04:43;89537.56;;;17.44;44.51
72585;BME280;60618;40.084;32.908;2023-05-08T11:07:10;89553.06;;;17.38;44.92
72585;BME280;60618;40.084;32.908;2023-05-08T11:09:46;89549.38;;;17.22;44.37
72585;BME280;60618;40.084;32.908;2023-05-08T11:12:26;89551.31;;;16.90;44.90
72585;BME280;60618;40.084;32.908;2023-05-08T11:15:01;89546.69;;;16.66;45.39
72585;BME280;60618;40.084;32.908;2023-05-08T11:17:29;89549.09;;;16.88;45.11
72585;BME280;60618;40.084;32.908;2023-05-08T11:20:01;89537.53;;;17.12;44.94
72585;BME280;60618;40.084;32.908;2023-05-08T11:22:29;89545.31;;;17.48;44.26
72585;BME280;60618;40.084;32.908;2023-05-08T11:25:04;89553.97;;;17.27;43.14
72585;BME280;60618;40.084;32.908;2023-05-08T11:27:35;89530.84;;;17.51;43.39
72585;BME280;60618;40.084;32.908;2023-05-08T11:30:21;89538.78;;;17.11;44.00
72585;BME280;60618;40.084;32.908;2023-05-08T11:35:56;89537.72;;;17.33;44.62
72585;BME280;60618;40.084;32.908;2023-05-08T11:38:30;89539.56;;;17.57;44.55
72585;BME280;60618;40.084;32.908;2023-05-08T11:41:19;89538.72;;;17.94;42.01
72585;BME280;60618;40.084;32.908;2023-05-08T11:46:59;89528.25;;;18.83;43.62
72585;BME280;60618;40.084;32.908;2023-05-08T11:49:29;89530.63;;;19.55;40.77
72585;BME280;60618;40.084;32.908;2023-05-08T11:51:57;89526.66;;;19.69;39.40
72585;BME280;60618;40.084;32.908;2023-05-08T11:54:28;89517.00;;;20.31;38.80
72585;BME280;60618;40.084;32.908;2023-05-08T11:56:55;89520.16;;;20.42;37.09
72585;BME280;60618;40.084;32.908;2023-05-08T11:59:23;89515.34;;;20.85;38.05
72585;BME280;60618;40.084;32.908;2023-05-08T12:01:50;89514.19;;;20.73;36.40
72585;BME280;60618;40.084;32.908;2023-05-08T12:04:20;89521.75;;;19.68;37.36
72585;BME280;60618;40.084;32.908;2023-05-08T12:06:47;89513.59;;;19.05;38.58
72585;BME280;60618;40.084;32.908;2023-05-08T12:09:16;89513.38;;;19.03;39.05
72585;BME280;60618;40.084;32.908;2023-05-08T12:11:44;89511.91;;;19.15;38.87
72585;BME280;60618;40.084;32.908;2023-05-08T12:14:11;89511.69;;;18.66;39.14
72585;BME280;60618;40.084;32.908;2023-05-08T12:16:39;89508.56;;;18.49;39.69
72585;BME280;60618;40.084;32.908;2023-05-08T12:19:10;89507.13;;;18.74;39.90
72585;BME280;60618;40.084;32.908;2023-05-08T12:21:38;89501.91;;;18.89;39.47
72585;BME280;60618;40.084;32.908;2023-05-08T12:24:11;89510.09;;;19.18;39.73
72585;BME280;60618;40.084;32.908;2023-05-08T12:26:39;89507.41;;;19.18;39.38
72585;BME280;60618;40.084;32.908;2023-05-08T12:29:06;89497.94;;;19.24;39.19
72585;BME280;60618;40.084;32.908;2023-05-08T12:31:34;89502.94;;;19.20;39.06
72585;BME280;60618;40.084;32.908;2023-05-08T12:34:04;89494.25;;;18.67;38.81
72585;BME280;60618;40.084;32.908;2023-05-08T12:36:35;89493.38;;;18.85;39.99
72585;BME280;60618;40.084;32.908;2023-05-08T12:39:12;89495.94;;;18.04;40.98
72585;BME280;60618;40.084;32.908;2023-05-08T12:41:50;89493.22;;;18.30;41.71
72585;BME280;60618;40.084;32.908;2023-05-08T12:44:21;89494.66;;;18.71;40.08
72585;BME280;60618;40.084;32.908;2023-05-08T12:46:53;89495.50;;;18.66;39.99
72585;BME280;60618;40.084;32.908;2023-05-08T12:49:29;89496.84;;;18.33;39.95
72585;BME280;60618;40.084;32.908;2023-05-08T12:52:07;89491.81;;;18.16;41.64
72585;BME280;60618;40.084;32.908;2023-05-08T12:54:39;89500.16;;;17.86;41.78
72585;BME280;60618;40.084;32.908;2023-05-08T12:57:17;89491.88;;;17.52;42.10
72585;BME280;60618;40.084;32.908;2023-05-08T12:59:45;89493.84;;;17.51;42.28
72585;BME280;60618;40.084;32.908;2023-05-08T13:02:13;89490.34;;;17.56;41.79
72585;BME280;60618;40.084;32.908;2023-05-08T13:04:41;89492.44;;;17.64;42.27
72585;BME280;60618;40.084;32.908;2023-05-08T13:07:09;89493.84;;;17.51;42.63
72585;BME280;60618;40.084;32.908;2023-05-08T13:09:38;89494.06;;;17.85;41.82
72585;BME280;60618;40.084;32.908;2023-05-08T13:12:05;89487.22;;;18.11;41.40
72585;BME280;60618;40.084;32.908;2023-05-08T13:14:33;89488.47;;;18.36;41.62
72585;BME280;60618;40.084;32.908;2023-05-08T13:17:00;89485.31;;;18.59;41.08
72585;BME280;60618;40.084;32.908;2023-05-08T13:19:27;89484.00;;;18.65;40.26
72585;BME280;60618;40.084;32.908;2023-05-08T13:21:54;89483.28;;;18.12;39.83
72585;BME280;60618;40.084;32.908;2023-05-08T13:24:21;89475.50;;;17.95;41.26
72585;BME280;60618;40.084;32.908;2023-05-08T13:26:48;89475.41;;;18.01;40.44
72585;BME280;60618;40.084;32.908;2023-05-08T13:29:15;89478.59;;;17.86;38.98
72585;BME280;60618;40.084;32.908;2023-05-08T13:31:41;89482.97;;;17.89;38.81
72585;BME280;60618;40.084;32.908;2023-05-08T13:34:08;89482.06;;;18.00;39.46
72585;BME280;60618;40.084;32.908;2023-05-08T13:36:35;89478.09;;;18.27;39.08
72585;BME280;60618;40.084;32.908;2023-05-08T13:39:02;89478.94;;;18.22;38.88
72585;BME280;60618;40.084;32.908;2023-05-08T13:41:29;89469.34;;;17.68;40.84
72585;BME280;60618;40.084;32.908;2023-05-08T13:43:56;89463.25;;;17.22;41.79
72585;BME280;60618;40.084;32.908;2023-05-08T13:46:23;89475.31;;;17.35;42.60
72585;BME280;60618;40.084;32.908;2023-05-08T13:48:50;89474.34;;;17.32;42.25
72585;BME280;60618;40.084;32.908;2023-05-08T13:51:17;89479.94;;;17.34;42.45